Time;durP1;ratioP1;P1;durP2;ratioP2;P2;SDS_P1;SDS_P2;PMS_P1;PMS_P2;Temp;Humidity;BMP_temperature;BMP_pressure;BME280_temperature;BME280_humidity;BME280_pressure;Samples;Min_cycle;Max_cycle;Signal;HPM_P1;HPM_P2
2022/09/13 00:01:28;;;;;;;;;11.25;8.75;;;;;-144.76;100.00;60493.00;5091557;27;45075;-81
2022/09/13 00:03:53;;;;;;;;;9.50;9.25;;;;;-144.76;100.00;60493.00;5091231;27;50978;-81
2022/09/13 00:06:20;;;;;;;;;8.50;8.50;;;;;-144.76;100.00;60493.00;5091491;27;45190;-81
2022/09/13 00:08:45;;;;;;;;;8.50;7.75;;;;;-144.76;100.00;60493.00;5091303;27;45793;-81
2022/09/13 00:11:19;;;;;;;;;8.00;8.00;;;;;-144.76;100.00;60493.00;5106710;27;45407;-81
2022/09/13 00:13:45;;;;;;;;;7.75;7.75;;;;;-144.76;100.00;60493.00;5091158;27;44917;-81
2022/09/13 00:16:16;;;;;;;;;9.50;8.75;;;;;-144.76;100.00;60493.00;5091290;27;44916;-81
2022/09/13 00:18:42;;;;;;;;;7.25;7.00;;;;;-144.76;100.00;60493.00;5090729;27;45962;-81
2022/09/13 00:21:14;;;;;;;;;7.00;7.00;;;;;-144.76;100.00;60493.00;5091832;27;45364;-81
2022/09/13 00:23:40;;;;;;;;;6.50;6.50;;;;;-144.76;100.00;60493.00;5106601;27;45147;-81
2022/09/13 00:26:08;;;;;;;;;7.75;7.75;;;;;-144.76;100.00;60493.00;5090659;27;45059;-81
2022/09/13 00:28:34;;;;;;;;;9.75;8.75;;;;;-144.76;100.00;60493.00;5088556;27;45234;-81
2022/09/13 00:31:01;;;;;;;;;10.75;10.00;;;;;-144.76;100.00;60493.00;5090762;27;45123;-81
2022/09/13 00:33:27;;;;;;;;;7.75;7.75;;;;;-144.76;100.00;60493.00;5089552;28;44981;-81
2022/09/13 00:35:52;;;;;;;;;8.25;8.25;;;;;-144.76;100.00;60493.00;5091892;27;45199;-80
2022/09/13 00:38:17;;;;;;;;;3.25;3.00;;;;;-144.76;100.00;60493.00;5094403;28;50075;-81
2022/09/13 00:40:43;;;;;;;;;8.00;7.00;;;;;-144.76;100.00;60493.00;5093805;28;62826;-81
2022/09/13 00:43:16;;;;;;;;;5.00;5.00;;;;;-144.76;100.00;60493.00;5094435;27;44981;-81
2022/09/13 00:45:42;;;;;;;;;6.00;5.00;;;;;-144.76;100.00;60493.00;5094394;27;45076;-81
2022/09/13 00:48:18;;;;;;;;;7.00;7.00;;;;;-144.76;100.00;60493.00;5094155;27;45181;-81
2022/09/13 00:50:50;;;;;;;;;10.00;8.25;;;;;-144.76;100.00;60493.00;5094234;27;45088;-81
2022/09/13 00:53:35;;;;;;;;;7.00;6.50;;;;;-144.76;100.00;60493.00;5094615;27;45128;-81
2022/09/13 00:56:12;;;;;;;;;8.75;8.75;;;;;-144.76;100.00;60493.00;5093920;28;44923;-81
2022/09/13 00:58:45;;;;;;;;;7.25;6.00;;;;;-144.76;100.00;60493.00;5092372;28;47537;-81
2022/09/13 01:01:14;;;;;;;;;7.50;7.50;;;;;-144.76;100.00;60493.00;5094871;27;45581;-81
2022/09/13 01:03:43;;;;;;;;;7.00;7.00;;;;;-144.76;100.00;60493.00;5092762;28;45030;-81
2022/09/13 01:06:19;;;;;;;;;6.00;6.00;;;;;-144.76;100.00;60493.00;5094164;27;44909;-81
2022/09/13 01:08:49;;;;;;;;;8.25;8.25;;;;;-144.76;100.00;60493.00;5094155;28;45675;-81
2022/09/13 01:11:40;;;;;;;;;9.25;8.25;;;;;-144.76;100.00;60493.00;5093967;28;45165;-81
2022/09/13 01:14:07;;;;;;;;;7.75;7.75;;;;;-144.76;100.00;60493.00;5094205;28;44906;-81
2022/09/13 01:16:33;;;;;;;;;8.00;7.25;;;;;-144.76;100.00;60493.00;5093977;28;45041;-80
2022/09/13 01:18:59;;;;;;;;;9.00;8.25;;;;;-144.76;100.00;60493.00;5093180;27;45630;-81
2022/09/13 01:21:44;;;;;;;;;7.75;7.75;;;;;-144.76;100.00;60493.00;5093820;27;45095;-81
2022/09/13 01:24:47;;;;;;;;;7.75;7.75;;;;;-144.76;100.00;60493.00;5093600;27;45193;-81
2022/09/13 01:27:28;;;;;;;;;11.00;10.50;;;;;-144.76;100.00;60493.00;5093801;27;45195;-81
2022/09/13 01:30:10;;;;;;;;;8.00;8.00;;;;;-144.76;100.00;60493.00;5093457;27;45398;-81
2022/09/13 01:32:51;;;;;;;;;8.25;8.25;;;;;-144.76;100.00;60493.00;5093918;27;45106;-82
2022/09/13 01:35:44;;;;;;;;;8.25;8.00;;;;;-144.76;100.00;60493.00;5093942;27;44987;-81
2022/09/13 01:38:40;;;;;;;;;9.25;7.50;;;;;-144.76;100.00;60493.00;5093424;27;44919;-81
2022/09/13 01:41:21;;;;;;;;;9.00;9.00;;;;;-144.76;100.00;60493.00;5093551;28;45218;-81
2022/09/13 01:44:11;;;;;;;;;11.75;11.00;;;;;-144.76;100.00;60493.00;5093370;27;45550;-81
2022/09/13 01:46:42;;;;;;;;;8.75;8.50;;;;;-144.76;100.00;60493.00;5093430;27;44922;-81
2022/09/13 01:49:18;;;;;;;;;8.50;7.50;;;;;-144.76;100.00;60493.00;5092631;27;45214;-81
2022/09/13 01:51:53;;;;;;;;;8.25;8.25;;;;;-144.76;100.00;60493.00;5092662;27;48172;-81
2022/09/13 01:54:24;;;;;;;;;9.50;9.00;;;;;-144.76;100.00;60493.00;5093272;27;45441;-81
2022/09/13 01:57:00;;;;;;;;;9.75;9.75;;;;;-144.76;100.00;60493.00;5092715;28;45044;-81
2022/09/13 01:59:37;;;;;;;;;7.50;7.25;;;;;-144.76;100.00;60493.00;5092050;28;45151;-81
2022/09/13 02:02:10;;;;;;;;;6.75;6.25;;;;;-144.76;100.00;60493.00;5093171;27;45102;-82
2022/09/13 02:04:42;;;;;;;;;8.75;8.00;;;;;-144.76;100.00;60493.00;5092920;27;45191;-82
2022/09/13 02:07:13;;;;;;;;;9.25;9.00;;;;;-144.76;100.00;60493.00;5093117;28;45154;-81
2022/09/13 02:09:44;;;;;;;;;8.50;8.25;;;;;-144.76;100.00;60493.00;5091445;28;45075;-81
2022/09/13 02:12:16;;;;;;;;;8.25;7.75;;;;;-144.76;100.00;60493.00;5092417;27;45872;-81
2022/09/13 02:14:44;;;;;;;;;8.75;8.75;;;;;-144.76;100.00;60493.00;5092978;27;45340;-81
2022/09/13 02:17:15;;;;;;;;;9.25;8.75;;;;;-144.76;100.00;60493.00;5108543;27;45110;-80
2022/09/13 02:19:55;;;;;;;;;9.00;8.00;;;;;-144.76;100.00;60493.00;5092989;27;45204;-82
2022/09/13 02:22:28;;;;;;;;;7.75;7.75;;;;;-144.76;100.00;60493.00;5092546;27;45253;-81
2022/09/13 02:25:01;;;;;;;;;10.00;9.00;;;;;-144.76;100.00;60493.00;5092378;27;45408;-81
2022/09/13 02:27:32;;;;;;;;;8.25;7.25;;;;;-144.76;100.00;60493.00;5092260;27;44893;-81
2022/09/13 02:30:05;;;;;;;;;7.00;7.00;;;;;-144.76;100.00;60493.00;5108178;27;45214;-81
2022/09/13 02:32:37;;;;;;;;;9.25;9.00;;;;;-144.76;100.00;60493.00;5092101;27;46379;-82
2022/09/13 02:35:23;;;;;;;;;9.50;8.75;;;;;-144.76;100.00;60493.00;5092913;27;45586;-81
2022/09/13 02:37:57;;;;;;;;;9.25;9.00;;;;;-144.76;100.00;60493.00;5092744;27;45191;-81
2022/09/13 02:40:27;;;;;;;;;10.50;8.75;;;;;-144.76;100.00;60493.00;5108241;27;45234;-81
2022/09/13 02:43:19;;;;;;;;;7.25;7.25;;;;;-144.76;100.00;60493.00;5091907;28;46135;-81
2022/09/13 02:45:55;;;;;;;;;8.75;8.25;;;;;-144.76;100.00;60493.00;5092326;27;45546;-81
2022/09/13 02:48:32;;;;;;;;;8.25;7.50;;;;;-144.76;100.00;60493.00;5091347;28;45075;-81
2022/09/13 02:51:07;;;;;;;;;7.75;7.75;;;;;-144.76;100.00;60493.00;5092832;27;44932;-81
2022/09/13 02:54:08;;;;;;;;;9.50;8.25;;;;;-144.76;100.00;60493.00;5092084;27;45120;-82
2022/09/13 02:57:09;;;;;;;;;10.00;10.00;;;;;-144.76;100.00;60493.00;5089715;27;45430;-81
2022/09/13 02:59:35;;;;;;;;;8.50;8.50;;;;;-144.76;100.00;60493.00;5092179;27;44963;-81
2022/09/13 03:02:06;;;;;;;;;8.75;7.25;;;;;-144.76;100.00;60493.00;5092384;28;44980;-81
2022/09/13 03:04:33;;;;;;;;;8.25;8.25;;;;;-144.76;100.00;60493.00;5092147;27;45465;-81
2022/09/13 03:06:59;;;;;;;;;10.25;10.25;;;;;-144.76;100.00;60493.00;5092041;28;45080;-81
2022/09/13 03:09:25;;;;;;;;;8.25;8.25;;;;;-144.76;100.00;60493.00;5092131;27;44878;-81
2022/09/13 03:12:22;;;;;;;;;8.00;7.50;;;;;-144.76;100.00;60493.00;5091772;27;45011;-81
2022/09/13 03:15:19;;;;;;;;;9.25;8.50;;;;;-144.76;100.00;60493.00;5092290;27;45188;-81
2022/09/13 03:18:06;;;;;;;;;7.75;7.50;;;;;-144.76;100.00;60493.00;5091938;27;45185;-81
2022/09/13 03:20:48;;;;;;;;;13.00;10.00;;;;;-144.76;100.00;60493.00;5092391;27;44927;-81
2022/09/13 03:23:36;;;;;;;;;10.00;10.00;;;;;-144.76;100.00;60493.00;5092104;27;45071;-81
2022/09/13 03:26:45;;;;;;;;;8.75;8.75;;;;;-144.76;100.00;60493.00;5107210;27;47188;-82
2022/09/13 03:29:44;;;;;;;;;8.25;7.50;;;;;-144.76;100.00;60493.00;5087877;27;45375;-82
2022/09/13 03:32:47;;;;;;;;;8.75;8.00;;;;;-144.76;100.00;60493.00;5091904;27;45145;-82
2022/09/13 03:35:37;;;;;;;;;8.25;8.25;;;;;-144.76;100.00;60493.00;5091958;28;45051;-82
2022/09/13 03:38:11;;;;;;;;;9.25;9.25;;;;;-144.76;100.00;60493.00;5107070;27;47539;-81
2022/09/13 03:40:55;;;;;;;;;8.25;8.25;;;;;-144.76;100.00;60493.00;5091024;27;45064;-81
2022/09/13 03:43:26;;;;;;;;;11.50;10.25;;;;;-144.76;100.00;60493.00;5091467;28;45107;-82
2022/09/13 03:45:57;;;;;;;;;8.50;8.50;;;;;-144.76;100.00;60493.00;5091787;27;44921;-81
2022/09/13 03:48:23;;;;;;;;;9.00;8.00;;;;;-144.76;100.00;60493.00;5092324;27;45229;-82
2022/09/13 03:50:49;;;;;;;;;10.00;10.00;;;;;-144.76;100.00;60493.00;5091970;28;45583;-82
2022/09/13 03:53:23;;;;;;;;;10.75;10.50;;;;;-144.76;100.00;60493.00;5091772;27;45075;-80
2022/09/13 03:55:48;;;;;;;;;8.00;8.00;;;;;-144.76;100.00;60493.00;5091388;28;45056;-81
2022/09/13 03:58:16;;;;;;;;;12.00;10.75;;;;;-144.76;100.00;60493.00;5091261;27;45454;-81
2022/09/13 04:00:44;;;;;;;;;8.00;7.50;;;;;-144.76;100.00;60493.00;5091414;27;45376;-81
2022/09/13 04:03:10;;;;;;;;;11.00;9.25;;;;;-144.76;100.00;60493.00;5091648;27;44987;-81
2022/09/13 04:05:35;;;;;;;;;9.75;9.00;;;;;-144.76;100.00;60493.00;5091194;27;45009;-82
2022/09/13 04:08:03;;;;;;;;;8.00;8.00;;;;;-144.76;100.00;60493.00;5091091;27;50114;-82
2022/09/13 04:10:30;;;;;;;;;11.00;10.00;;;;;-144.76;100.00;60493.00;5089933;27;45288;-82
2022/09/13 04:12:56;;;;;;;;;9.00;8.00;;;;;-144.76;100.00;60493.00;5094652;27;45198;-82
2022/09/13 04:15:21;;;;;;;;;10.00;9.75;;;;;-144.76;100.00;60493.00;5095277;27;45025;-82
2022/09/13 04:17:47;;;;;;;;;8.00;8.00;;;;;-144.76;100.00;60493.00;5110229;27;57031;-82
2022/09/13 04:20:12;;;;;;;;;9.50;8.50;;;;;-144.76;100.00;60493.00;5110749;27;45122;-82
2022/09/13 04:22:38;;;;;;;;;8.00;7.50;;;;;-144.76;100.00;60493.00;5095043;27;45078;-82
2022/09/13 04:25:04;;;;;;;;;7.25;6.50;;;;;-144.76;100.00;60493.00;5094410;27;49873;-82
2022/09/13 04:27:29;;;;;;;;;6.50;6.50;;;;;-144.76;100.00;60493.00;5094366;27;46118;-81
2022/09/13 04:29:55;;;;;;;;;9.50;9.00;;;;;-144.76;100.00;60493.00;5094862;27;44978;-82
2022/09/13 04:32:20;;;;;;;;;9.00;7.00;;;;;-144.76;100.00;60493.00;5094162;28;52640;-82
2022/09/13 04:34:46;;;;;;;;;9.00;9.00;;;;;-144.76;100.00;60493.00;5094343;27;61547;-82
2022/09/13 04:37:12;;;;;;;;;9.25;8.50;;;;;-144.76;100.00;60493.00;5094769;27;45751;-82
2022/09/13 04:39:37;;;;;;;;;9.50;9.50;;;;;-144.76;100.00;60493.00;5094418;27;44861;-81
2022/09/13 04:42:03;;;;;;;;;8.00;8.00;;;;;-144.76;100.00;60493.00;5094622;28;45055;-81
2022/09/13 04:44:29;;;;;;;;;9.50;8.75;;;;;-144.76;100.00;60493.00;5094408;27;45128;-82
2022/09/13 04:46:57;;;;;;;;;9.00;9.00;;;;;-144.76;100.00;60493.00;5094244;27;46207;-82
2022/09/13 04:49:23;;;;;;;;;9.75;9.50;;;;;-144.76;100.00;60493.00;5094303;28;45453;-81
2022/09/13 04:51:48;;;;;;;;;8.25;7.75;;;;;-144.76;100.00;60493.00;5110247;27;44957;-81
2022/09/13 04:54:14;;;;;;;;;8.00;8.00;;;;;-144.76;100.00;60493.00;5094562;27;45045;-81
2022/09/13 04:56:39;;;;;;;;;7.50;7.00;;;;;-144.76;100.00;60493.00;5093402;28;45151;-81
2022/09/13 04:59:05;;;;;;;;;10.00;9.75;;;;;-144.76;100.00;60493.00;5094044;28;45014;-80
2022/09/13 05:01:31;;;;;;;;;7.00;6.75;;;;;-144.76;100.00;60493.00;5093912;28;45103;-80
2022/09/13 05:03:56;;;;;;;;;9.75;9.25;;;;;-144.76;100.00;60493.00;5094145;27;45460;-81
2022/09/13 05:06:22;;;;;;;;;10.00;9.00;;;;;-144.76;100.00;60493.00;5093593;28;60265;-80
2022/09/13 05:08:54;;;;;;;;;9.00;9.00;;;;;-144.76;100.00;60493.00;5094120;27;44943;-81
2022/09/13 05:11:22;;;;;;;;;10.75;9.00;;;;;-144.76;100.00;60493.00;5092272;28;45038;-80
2022/09/13 05:13:54;;;;;;;;;10.00;9.25;;;;;-144.76;100.00;60493.00;5094049;28;45002;-80
2022/09/13 05:16:20;;;;;;;;;12.00;12.00;;;;;-144.76;100.00;60493.00;5093875;27;45242;-80
2022/09/13 05:18:45;;;;;;;;;11.25;10.00;;;;;-144.76;100.00;60493.00;5094084;27;45174;-80
2022/09/13 05:21:11;;;;;;;;;11.75;11.00;;;;;-144.76;100.00;60493.00;5093479;27;45499;-80
2022/09/13 05:23:37;;;;;;;;;10.00;10.00;;;;;-144.76;100.00;60493.00;5109278;27;45084;-80
2022/09/13 05:26:04;;;;;;;;;7.25;7.00;;;;;-144.76;100.00;60493.00;5093825;27;45802;-80
2022/09/13 05:28:33;;;;;;;;;9.00;8.25;;;;;-144.76;100.00;60493.00;5093950;27;45641;-81
2022/09/13 05:31:05;;;;;;;;;10.00;10.00;;;;;-144.76;100.00;60493.00;5093783;27;45119;-81
2022/09/13 05:33:33;;;;;;;;;9.50;8.00;;;;;-144.76;100.00;60493.00;5092115;28;45113;-80
2022/09/13 05:35:59;;;;;;;;;9.00;8.25;;;;;-144.76;100.00;60493.00;5093768;28;45789;-80
2022/09/13 05:38:24;;;;;;;;;10.50;9.25;;;;;-144.76;100.00;60493.00;5093447;28;45024;-81
2022/09/13 05:40:55;;;;;;;;;11.00;11.00;;;;;-144.76;100.00;60493.00;5093288;27;45165;-81
2022/09/13 05:43:20;;;;;;;;;10.75;10.00;;;;;-144.76;100.00;60493.00;5093445;27;44989;-80
2022/09/13 05:45:46;;;;;;;;;10.00;10.00;;;;;-144.76;100.00;60493.00;5108755;27;45955;-81
2022/09/13 05:48:11;;;;;;;;;11.75;10.00;;;;;-144.76;100.00;60493.00;5093187;27;50457;-80
2022/09/13 05:50:37;;;;;;;;;8.25;7.25;;;;;-144.76;100.00;60493.00;5093524;27;45138;-81
2022/09/13 05:53:03;;;;;;;;;10.00;9.25;;;;;-144.76;100.00;60493.00;5093566;27;45171;-81
2022/09/13 05:55:29;;;;;;;;;12.00;10.75;;;;;-144.76;100.00;60493.00;5108704;27;46286;-81
2022/09/13 05:57:55;;;;;;;;;8.00;8.00;;;;;-144.76;100.00;60493.00;5093050;27;45511;-83
2022/09/13 06:00:20;;;;;;;;;7.75;7.75;;;;;-144.76;100.00;60493.00;5093462;28;44921;-83
2022/09/13 06:02:46;;;;;;;;;9.00;8.00;;;;;-144.76;100.00;60493.00;5093996;27;45310;-80
2022/09/13 06:05:11;;;;;;;;;6.50;6.25;;;;;-144.76;100.00;60493.00;5092863;27;45653;-80
2022/09/13 06:07:40;;;;;;;;;8.75;8.00;;;;;-144.76;100.00;60493.00;5092920;27;45004;-80
2022/09/13 06:10:06;;;;;;;;;7.25;6.00;;;;;-144.76;100.00;60493.00;5093091;27;45103;-80
2022/09/13 06:12:31;;;;;;;;;6.00;6.00;;;;;-144.76;100.00;60493.00;5092526;27;44924;-81
2022/09/13 06:14:57;;;;;;;;;8.00;8.00;;;;;-144.76;100.00;60493.00;5092780;27;50373;-80
2022/09/13 06:17:22;;;;;;;;;8.33;8.00;;;;;-144.76;100.00;60493.00;5092181;28;59435;-80
2022/09/13 06:19:47;;;;;;;;;7.00;6.50;;;;;-144.76;100.00;60493.00;5091653;28;45173;-80
2022/09/13 06:22:12;;;;;;;;;7.00;6.67;;;;;-144.76;100.00;60493.00;5092098;28;61918;-80
2022/09/13 06:24:38;;;;;;;;;7.67;7.00;;;;;-144.76;100.00;60493.00;5091964;28;61704;-80
2022/09/13 06:27:03;;;;;;;;;6.25;6.25;;;;;-144.76;100.00;60493.00;5107807;27;52117;-80
2022/09/13 06:29:28;;;;;;;;;9.50;9.00;;;;;-144.76;100.00;60493.00;5091641;28;45498;-80
2022/09/13 06:31:54;;;;;;;;;7.25;7.25;;;;;-144.76;100.00;60493.00;5092825;27;44963;-80
2022/09/13 06:34:19;;;;;;;;;6.50;6.00;;;;;-144.76;100.00;60493.00;5092518;27;45584;-80
2022/09/13 06:36:45;;;;;;;;;7.00;7.00;;;;;-144.76;100.00;60493.00;5092303;27;44976;-81
2022/09/13 06:39:10;;;;;;;;;7.00;6.00;;;;;-144.76;100.00;60493.00;5093139;27;45153;-80
2022/09/13 06:41:36;;;;;;;;;7.25;6.25;;;;;-144.76;100.00;60493.00;5092600;28;45430;-81
2022/09/13 06:44:02;;;;;;;;;6.75;6.75;;;;;-144.76;100.00;60493.00;5092520;27;45591;-80
2022/09/13 06:46:29;;;;;;;;;7.25;7.25;;;;;-144.76;100.00;60493.00;5089595;28;45056;-80
2022/09/13 06:48:58;;;;;;;;;7.75;7.50;;;;;-144.76;100.00;60493.00;5092891;27;45011;-80
2022/09/13 06:51:24;;;;;;;;;7.00;7.00;;;;;-144.76;100.00;60493.00;5092446;27;45168;-80
2022/09/13 06:53:51;;;;;;;;;6.00;5.75;;;;;-144.76;100.00;60493.00;5092582;27;45828;-80
2022/09/13 06:56:19;;;;;;;;;6.50;6.25;;;;;-144.76;100.00;60493.00;5092541;28;45044;-80
2022/09/13 06:58:46;;;;;;;;;8.00;7.00;;;;;-144.76;100.00;60493.00;5092684;28;44937;-80
2022/09/13 07:01:20;;;;;;;;;6.00;5.25;;;;;-144.76;100.00;60493.00;5092480;27;45040;-80
2022/09/13 07:03:51;;;;;;;;;5.00;5.00;;;;;-144.76;100.00;60493.00;5107809;27;47795;-80
2022/09/13 07:06:19;;;;;;;;;6.50;6.25;;;;;-144.76;100.00;60493.00;5091952;28;45149;-81
2022/09/13 07:08:46;;;;;;;;;5.50;4.50;;;;;-144.76;100.00;60493.00;5107683;27;45173;-80
2022/09/13 07:11:13;;;;;;;;;6.00;6.00;;;;;-144.76;100.00;60493.00;5091948;27;44930;-81
2022/09/13 07:13:39;;;;;;;;;5.75;5.75;;;;;-144.76;100.00;60493.00;5092070;27;45442;-81
2022/09/13 07:16:08;;;;;;;;;8.25;8.00;;;;;-144.76;100.00;60493.00;5092379;28;45100;-80
2022/09/13 07:18:34;;;;;;;;;7.75;7.00;;;;;-144.76;100.00;60493.00;5091646;27;45166;-81
2022/09/13 07:21:07;;;;;;;;;6.25;5.50;;;;;-144.76;100.00;60493.00;5092108;27;45217;-80
2022/09/13 07:23:35;;;;;;;;;7.50;7.00;;;;;-144.76;100.00;60493.00;5091594;28;46034;-81
2022/09/13 07:26:01;;;;;;;;;7.25;6.25;;;;;-144.76;100.00;60493.00;5091276;28;45378;-81
2022/09/13 07:28:29;;;;;;;;;6.75;6.00;;;;;-144.76;100.00;60493.00;5091661;27;44890;-81
2022/09/13 07:30:57;;;;;;;;;7.00;7.00;;;;;-144.76;100.00;60493.00;5090546;28;45255;-81
2022/09/13 07:33:23;;;;;;;;;6.25;6.25;;;;;-144.76;100.00;60493.00;5091618;27;45408;-81
2022/09/13 07:35:54;;;;;;;;;7.25;7.25;;;;;-144.76;100.00;60493.00;5092145;27;45194;-81
2022/09/13 07:38:19;;;;;;;;;8.00;7.00;;;;;-144.76;100.00;60493.00;5091539;27;44859;-81
2022/09/13 07:40:53;;;;;;;;;5.00;5.00;;;;;-144.76;100.00;60493.00;5091334;27;54665;-81
2022/09/13 07:43:18;;;;;;;;;7.00;6.50;;;;;-144.76;100.00;60493.00;5091429;27;45139;-81
2022/09/13 07:45:44;;;;;;;;;4.00;4.00;;;;;-144.76;100.00;60493.00;5090323;28;61078;-81
2022/09/13 07:48:09;;;;;;;;;7.00;5.33;;;;;-144.76;100.00;60493.00;5091032;28;59916;-80
2022/09/13 07:50:34;;;;;;;;;6.00;5.00;;;;;-144.76;100.00;60493.00;5090998;28;61637;-81
2022/09/13 07:53:00;;;;;;;;;6.25;5.00;;;;;-144.76;100.00;60493.00;5091400;28;51498;-80
2022/09/13 07:55:25;;;;;;;;;4.25;4.25;;;;;-144.76;100.00;60493.00;5091156;27;45036;-81
2022/09/13 07:57:50;;;;;;;;;6.00;5.75;;;;;-144.76;100.00;60493.00;5091001;27;45197;-81
2022/09/13 08:00:16;;;;;;;;;5.00;5.00;;;;;-144.76;100.00;60493.00;5091822;27;45118;-81
2022/09/13 08:02:41;;;;;;;;;7.25;6.00;;;;;-144.76;100.00;60493.00;5089845;28;47351;-81
2022/09/13 08:05:06;;;;;;;;;5.00;5.00;;;;;-144.76;100.00;60493.00;5090691;28;58029;-81
2022/09/13 08:07:32;;;;;;;;;5.50;5.00;;;;;-144.76;100.00;60493.00;5091409;27;45245;-81
2022/09/13 08:09:57;;;;;;;;;6.00;6.00;;;;;-144.76;100.00;60493.00;5090632;28;60588;-81
2022/09/13 08:12:22;;;;;;;;;5.00;5.00;;;;;-144.76;100.00;60493.00;5090607;27;45210;-81
2022/09/13 08:14:48;;;;;;;;;8.00;6.75;;;;;-144.76;100.00;60493.00;5091498;27;44936;-81
2022/09/13 08:17:13;;;;;;;;;6.00;5.67;;;;;-144.76;100.00;60493.00;5090907;28;52004;-81
2022/09/13 08:19:38;;;;;;;;;6.50;6.25;;;;;-144.76;100.00;60493.00;5091311;27;44882;-81
2022/09/13 08:22:04;;;;;;;;;6.00;6.00;;;;;-144.76;100.00;60493.00;5091085;27;45441;-80
2022/09/13 08:24:29;;;;;;;;;6.50;6.25;;;;;-144.76;100.00;60493.00;5090560;27;61333;-81
2022/09/13 08:26:54;;;;;;;;;7.33;7.00;;;;;-144.76;100.00;60493.00;5089746;28;60980;-81
2022/09/13 08:29:20;;;;;;;;;9.00;8.00;;;;;-144.76;100.00;60493.00;5091443;27;44948;-81
2022/09/13 08:31:46;;;;;;;;;7.25;6.00;;;;;-144.76;100.00;60493.00;5106873;27;47152;-81
2022/09/13 08:34:13;;;;;;;;;7.00;6.00;;;;;-144.76;100.00;60493.00;5091062;27;45496;-80
2022/09/13 08:36:40;;;;;;;;;7.00;7.00;;;;;-144.76;100.00;60493.00;5090931;27;45118;-81
2022/09/13 08:39:06;;;;;;;;;5.25;4.75;;;;;-144.76;100.00;60493.00;5091263;27;45198;-80
2022/09/13 08:41:47;;;;;;;;;5.00;5.00;;;;;-144.76;100.00;60493.00;5090609;28;45159;-81
2022/09/13 08:44:31;;;;;;;;;7.50;6.00;;;;;-144.76;100.00;60493.00;5090793;27;45067;-81
2022/09/13 08:47:33;;;;;;;;;6.50;5.50;;;;;-144.76;100.00;60493.00;5091170;28;44932;-80
2022/09/13 08:50:05;;;;;;;;;8.50;7.00;;;;;-144.76;100.00;60493.00;5089679;27;45075;-81
2022/09/13 08:52:54;;;;;;;;;6.25;5.25;;;;;-144.76;100.00;60493.00;5090798;27;45580;-81
2022/09/13 08:55:22;;;;;;;;;5.25;5.00;;;;;-144.76;100.00;60493.00;5090977;28;45571;-80
2022/09/13 08:57:57;;;;;;;;;6.00;6.00;;;;;-144.76;100.00;60493.00;5092460;27;45086;-81
2022/09/13 09:00:33;;;;;;;;;6.25;6.00;;;;;-144.76;100.00;60493.00;5094254;27;45119;-81
2022/09/13 09:03:14;;;;;;;;;7.25;7.25;;;;;-144.76;100.00;60493.00;5092604;28;46480;-81
2022/09/13 09:05:48;;;;;;;;;5.25;5.00;;;;;-144.76;100.00;60493.00;5093807;27;45311;-81
2022/09/13 09:08:30;;;;;;;;;7.25;6.75;;;;;-144.76;100.00;60493.00;5094565;27;45079;-81
2022/09/13 09:11:01;;;;;;;;;6.25;5.25;;;;;-144.76;100.00;60493.00;5094572;27;45162;-81
2022/09/13 09:13:34;;;;;;;;;3.50;3.50;;;;;-144.76;100.00;60493.00;5093986;27;45240;-80
2022/09/13 09:16:06;;;;;;;;;5.00;4.00;;;;;-144.76;100.00;60493.00;5094092;27;44950;-80
2022/09/13 09:18:36;;;;;;;;;6.75;6.00;;;;;-144.76;100.00;60493.00;5093795;27;45106;-81
2022/09/13 09:21:02;;;;;;;;;6.00;5.25;;;;;-144.76;100.00;60493.00;5109597;27;45179;-82
2022/09/13 09:23:36;;;;;;;;;5.75;5.00;;;;;-144.76;100.00;60493.00;5093757;27;45747;-82
2022/09/13 09:26:15;;;;;;;;;5.25;5.25;;;;;-144.76;100.00;60493.00;5093396;27;44923;-81
2022/09/13 09:28:42;;;;;;;;;6.00;5.00;;;;;-144.76;100.00;60493.00;5093671;27;45082;-81
2022/09/13 09:31:15;;;;;;;;;6.50;5.75;;;;;-144.76;100.00;60493.00;5094714;28;45277;-82
2022/09/13 09:34:21;;;;;;;;;6.25;5.75;;;;;-144.76;100.00;60493.00;5093716;27;45686;-81
2022/09/13 09:37:05;;;;;;;;;5.00;5.00;;;;;-144.76;100.00;60493.00;5093322;27;45050;-81
2022/09/13 09:39:32;;;;;;;;;7.00;6.00;;;;;-144.76;100.00;60493.00;5093380;28;45065;-80
2022/09/13 09:42:03;;;;;;;;;5.25;5.25;;;;;-144.76;100.00;60493.00;5092926;27;45099;-81
2022/09/13 09:44:32;;;;;;;;;5.50;5.50;;;;;-144.76;100.00;60493.00;5093576;27;45112;-82
2022/09/13 09:47:04;;;;;;;;;6.00;6.00;;;;;-144.76;100.00;60493.00;5093561;27;45346;-81
2022/09/13 09:52:28;;;;;;;;;7.00;5.00;;;;;-144.76;100.00;60493.00;5093424;28;45038;-81
2022/09/13 09:55:09;;;;;;;;;5.25;5.00;;;;;-144.76;100.00;60493.00;5093434;27;45732;-81
2022/09/13 09:57:54;;;;;;;;;4.50;4.25;;;;;-144.76;100.00;60493.00;5092787;27;45453;-81
2022/09/13 10:00:25;;;;;;;;;5.75;5.75;;;;;-144.76;100.00;60493.00;5093854;27;45004;-80
2022/09/13 10:02:53;;;;;;;;;5.00;4.75;;;;;-144.76;100.00;60493.00;5093003;27;44980;-81
2022/09/13 10:05:21;;;;;;;;;5.00;4.25;;;;;-144.76;100.00;60493.00;5093056;28;45778;-81
2022/09/13 10:08:01;;;;;;;;;6.50;5.00;;;;;-144.76;100.00;60493.00;5092853;28;45408;-81
2022/09/13 10:10:41;;;;;;;;;5.00;5.00;;;;;-144.76;100.00;60493.00;5092823;27;44912;-81
2022/09/13 10:13:15;;;;;;;;;6.00;6.00;;;;;-144.76;100.00;60493.00;5092735;27;45124;-81
2022/09/13 10:15:59;;;;;;;;;6.25;6.25;;;;;-144.76;100.00;60493.00;5093212;27;45561;-81
2022/09/13 10:18:32;;;;;;;;;10.75;10.00;;;;;-144.76;100.00;60493.00;5092137;27;45012;-81
2022/09/13 10:21:16;;;;;;;;;9.00;8.75;;;;;-144.76;100.00;60493.00;5092821;27;45394;-81
2022/09/13 10:23:41;;;;;;;;;11.25;8.25;;;;;-144.76;100.00;60493.00;5093160;27;45102;-80
2022/09/13 10:26:17;;;;;;;;;7.00;7.00;;;;;-144.76;100.00;60493.00;5092898;27;45650;-81
2022/09/13 10:28:55;;;;;;;;;8.75;7.75;;;;;-144.76;100.00;60493.00;5092529;28;45397;-81
2022/09/13 10:31:28;;;;;;;;;7.00;6.00;;;;;-144.76;100.00;60493.00;5093128;27;45061;-81
2022/09/13 10:34:05;;;;;;;;;6.00;6.00;;;;;-144.76;100.00;60493.00;5093389;28;44970;-81
2022/09/13 10:36:34;;;;;;;;;5.25;5.25;;;;;-144.76;100.00;60493.00;5092469;28;45599;-81
2022/09/13 10:39:04;;;;;;;;;6.00;6.00;;;;;-144.76;100.00;60493.00;5093037;27;45135;-81
2022/09/13 10:41:34;;;;;;;;;6.75;6.50;;;;;-144.76;100.00;60493.00;5092263;28;45238;-81
2022/09/13 10:44:05;;;;;;;;;5.25;5.25;;;;;-144.76;100.00;60493.00;5092662;27;45147;-81
2022/09/13 10:46:35;;;;;;;;;5.75;5.75;;;;;-144.76;100.00;60493.00;5092019;27;45646;-81
2022/09/13 10:49:00;;;;;;;;;6.75;6.75;;;;;-144.76;100.00;60493.00;5092975;27;45465;-80
2022/09/13 10:51:25;;;;;;;;;5.00;5.00;;;;;-144.76;100.00;60493.00;5092582;27;45110;-81
2022/09/13 10:54:07;;;;;;;;;6.00;5.33;;;;;-144.76;100.00;60493.00;5093109;27;45168;-80
2022/09/13 10:56:32;;;;;;;;;6.00;6.00;;;;;-144.76;100.00;60493.00;5091539;27;45686;-81
2022/09/13 10:59:21;;;;;;;;;5.00;5.00;;;;;-144.76;100.00;60493.00;5092098;27;44926;-81
2022/09/13 11:01:52;;;;;;;;;6.00;6.00;;;;;-144.76;100.00;60493.00;5092471;27;44919;-82
2022/09/13 11:04:39;;;;;;;;;5.75;5.75;;;;;-144.76;100.00;60493.00;5092243;27;45130;-81
2022/09/13 11:07:25;;;;;;;;;7.00;6.00;;;;;-144.76;100.00;60493.00;5092122;27;45967;-81
2022/09/13 11:10:07;;;;;;;;;5.00;4.00;;;;;-144.76;100.00;60493.00;5092545;27;45306;-82
2022/09/13 11:12:56;;;;;;;;;4.00;4.00;;;;;-144.76;100.00;60493.00;5091935;27;45200;-81
2022/09/13 11:16:13;;;;;;;;;6.00;6.00;;;;;-144.76;100.00;60493.00;5092137;27;45031;-81
2022/09/13 11:18:54;;;;;;;;;6.50;6.00;;;;;-144.76;100.00;60493.00;5091658;27;45572;-81
2022/09/13 11:21:37;;;;;;;;;6.50;6.00;;;;;-144.76;100.00;60493.00;5091513;27;45299;-81
2022/09/13 11:24:16;;;;;;;;;7.50;6.25;;;;;-144.76;100.00;60493.00;5092567;27;44957;-81
2022/09/13 11:26:58;;;;;;;;;8.25;7.25;;;;;-144.76;100.00;60493.00;5091090;27;45237;-81
2022/09/13 11:29:33;;;;;;;;;6.00;6.00;;;;;-144.76;100.00;60493.00;5091948;27;45205;-81
2022/09/13 11:32:42;;;;;;;;;7.25;6.50;;;;;-144.76;100.00;60493.00;5091958;27;44977;-80